LFLS/GNB METAR and TAF weather

Enter ICAO airport designator
Station Type Date Time Source
LFLS METAR 2021/01/27 12:30 UTC NOAA

LFLS 271230Z AUTO 07009KT 9999 OVC035 04/M02 Q1019 NOSIG


Station Type Date Time Source
LFLS Decoded METAR 2021/01/27 12:30 UTC NOAA

Grenoble / St. Geoirs, France (LFLS) 45-22N 005-20E 386M
Jan 27, 2021 - 07:30 AM EST / 2021.01.27 1230 UTC
Wind: from the ENE (070 degrees) at 10 MPH (9 KT):0
Visibility: greater than 7 mile(s):0
Sky conditions: overcast
Temperature: 39 F (4 C)
Dew Point: 28 F (-2 C)
Relative Humidity: 64%
Pressure (altimeter): 30.09 in. Hg (1019 hPa)
ob: LFLS 271230Z AUTO 07009KT 9999 OVC035 04/M02 Q1019 NOSIG
cycle: 12

Station Type Date Time Source
LFLS TAF 2021/01/27 09:42 UTC NOAA

TAF LFLS 270800Z 2709/2809 08008KT 9999 BKN050
BECMG 2711/2714 OVC025 PROB30
TEMPO 2711/2717 -RADZ
BECMG 2717/2719 7000 -RA PROB40
TEMPO 2717/2720 OVC014
TEMPO 2720/2803 3500 RA BR
FM280300 09005KT 9999 OVC025 PROB40
TEMPO 2803/2809 4000 -RA BR BKN014

Example: see airport list